createdAt,value
2018-01-27T00:00:42.162Z,1022.60
2018-01-27T00:01:41.902Z,1022.67
2018-01-27T00:02:41.930Z,1022.68
2018-01-27T00:03:41.743Z,1022.61
2018-01-27T00:04:41.744Z,1022.65
2018-01-27T00:05:41.654Z,1022.68
2018-01-27T00:06:41.553Z,1022.68
2018-01-27T00:07:41.475Z,1022.64
2018-01-27T00:08:41.462Z,1022.67
2018-01-27T00:09:41.281Z,1022.70
2018-01-27T00:10:41.347Z,1022.72
2018-01-27T00:11:41.106Z,1022.69
2018-01-27T00:12:41.078Z,1022.68
2018-01-27T00:13:41.030Z,1022.65
2018-01-27T00:14:40.978Z,1022.61
2018-01-27T00:15:40.796Z,1022.60
2018-01-27T00:16:40.828Z,1022.61
2018-01-27T00:17:40.611Z,1022.62
2018-01-27T00:18:40.670Z,1022.65
2018-01-27T00:19:40.475Z,1022.69
2018-01-27T00:20:40.451Z,1022.70
2018-01-27T00:21:40.340Z,1022.69
2018-01-27T00:22:40.428Z,1022.76
2018-01-27T00:23:40.128Z,1022.70
2018-01-27T00:24:40.170Z,1022.75
2018-01-27T00:25:40.023Z,1022.72
2018-01-27T00:26:39.978Z,1022.72
2018-01-27T00:27:39.856Z,1022.71
2018-01-27T00:28:39.843Z,1022.72
2018-01-27T00:29:39.653Z,1022.71
2018-01-27T00:30:39.760Z,1022.72
2018-01-27T00:31:39.505Z,1022.73
2018-01-27T00:32:39.455Z,1022.74
2018-01-27T00:33:39.454Z,1022.70
2018-01-27T00:34:39.270Z,1022.72
2018-01-27T00:35:39.160Z,1022.73
2018-01-27T00:36:39.219Z,1022.70
2018-01-27T00:37:39.072Z,1022.69
2018-01-27T00:38:39.093Z,1022.67
2018-01-27T00:39:38.827Z,1022.70
2018-01-27T00:40:38.804Z,1022.71
2018-01-27T00:41:38.701Z,1022.69
2018-01-27T00:42:38.828Z,1022.73
2018-01-27T00:43:38.510Z,1022.72
2018-01-27T00:44:38.521Z,1022.73
2018-01-27T00:45:38.355Z,1022.76
2018-01-27T00:46:38.344Z,1022.79
2018-01-27T00:47:38.211Z,1022.79
2018-01-27T00:48:38.158Z,1022.78
2018-01-27T00:49:38.018Z,1022.76
2018-01-27T00:50:38.041Z,1022.80
2018-01-27T00:51:37.861Z,1022.75
2018-01-27T00:52:37.861Z,1022.75
2018-01-27T00:53:37.719Z,1022.75
2018-01-27T00:54:37.660Z,1022.76
2018-01-27T00:55:37.539Z,1022.75
2018-01-27T00:56:37.578Z,1022.75
2018-01-27T00:57:37.369Z,1022.73
2018-01-27T00:58:37.419Z,1022.73
2018-01-27T00:59:37.206Z,1022.71
2018-01-27T01:00:37.293Z,1022.73
2018-01-27T01:01:37.079Z,1022.71
2018-01-27T01:02:37.112Z,1022.71
2018-01-27T01:03:36.975Z,1022.69
2018-01-27T01:04:36.916Z,1022.73
2018-01-27T01:05:36.727Z,1022.72
2018-01-27T01:06:36.727Z,1022.68
2018-01-27T01:07:36.563Z,1022.76
2018-01-27T01:08:36.525Z,1022.75
2018-01-27T01:09:36.557Z,1022.77
2018-01-27T01:10:36.434Z,1022.73
2018-01-27T01:11:36.247Z,1022.80
2018-01-27T01:12:36.240Z,1022.78
2018-01-27T01:13:36.088Z,1022.78
2018-01-27T01:14:36.082Z,1022.83
2018-01-27T01:15:35.926Z,1022.86
2018-01-27T01:16:35.856Z,1022.81
2018-01-27T01:17:35.756Z,1022.84
2018-01-27T01:18:36.447Z,1022.86
2018-01-27T01:19:35.615Z,1022.86
2018-01-27T01:20:35.535Z,1022.85
2018-01-27T01:21:35.433Z,1022.87
2018-01-27T01:22:35.394Z,1022.84
2018-01-27T01:23:35.279Z,1022.86
2018-01-27T01:24:35.333Z,1022.89
2018-01-27T01:25:35.115Z,1022.88
2018-01-27T01:26:35.120Z,1022.86
2018-01-27T01:27:34.949Z,1022.90
2018-01-27T01:28:34.919Z,1022.94
2018-01-27T01:29:34.787Z,1022.94
2018-01-27T01:30:34.767Z,1022.94
2018-01-27T01:31:34.618Z,1022.97
2018-01-27T01:32:34.639Z,1022.98
2018-01-27T01:33:34.461Z,1023.03
2018-01-27T01:34:34.467Z,1023.00
2018-01-27T01:35:34.323Z,1022.98
2018-01-27T01:36:34.352Z,1022.96
2018-01-27T01:37:34.163Z,1022.97
2018-01-27T01:38:34.165Z,1022.99
2018-01-27T01:39:34.007Z,1022.99
2018-01-27T01:40:33.999Z,1022.99
2018-01-27T01:41:33.852Z,1023.05
2018-01-27T01:42:33.779Z,1023.02
2018-01-27T01:43:33.657Z,1023.05
2018-01-27T01:44:33.693Z,1023.05
2018-01-27T01:45:33.510Z,1023.06
2018-01-27T01:46:33.540Z,1023.03
2018-01-27T01:47:33.331Z,1023.07
2018-01-27T01:48:33.302Z,1023.09
2018-01-27T01:49:33.185Z,1023.07
2018-01-27T01:50:33.158Z,1023.11
2018-01-27T01:51:33.034Z,1023.14
2018-01-27T01:52:33.033Z,1023.17
2018-01-27T01:53:32.848Z,1023.14
2018-01-27T01:54:32.826Z,1023.10
2018-01-27T01:55:32.682Z,1023.11
2018-01-27T01:56:32.665Z,1023.11
2018-01-27T01:57:32.535Z,1023.07
2018-01-27T01:58:32.560Z,1023.08
2018-01-27T01:59:32.367Z,1023.07
2018-01-27T02:00:32.359Z,1023.12
2018-01-27T02:01:32.230Z,1023.06
2018-01-27T02:02:32.164Z,1023.10
2018-01-27T02:03:32.043Z,1023.12
2018-01-27T02:04:32.079Z,1023.12
2018-01-27T02:05:31.884Z,1023.14
2018-01-27T02:06:31.915Z,1023.14
2018-01-27T02:07:31.729Z,1023.10
2018-01-27T02:08:31.695Z,1023.10
2018-01-27T02:09:31.565Z,1023.09
2018-01-27T02:10:31.618Z,1023.08
2018-01-27T02:11:31.450Z,1023.11
2018-01-27T02:12:31.444Z,1023.07
2018-01-27T02:13:31.236Z,1023.08
2018-01-27T02:14:31.222Z,1023.08
2018-01-27T02:15:31.075Z,1023.08
2018-01-27T02:16:31.027Z,1023.10
2018-01-27T02:17:30.941Z,1023.16
2018-01-27T02:18:30.946Z,1023.15
2018-01-27T02:19:30.753Z,1023.22
2018-01-27T02:20:30.785Z,1023.19
2018-01-27T02:21:30.591Z,1023.20
2018-01-27T02:22:30.601Z,1023.22
2018-01-27T02:23:30.437Z,1023.23
2018-01-27T02:24:30.476Z,1023.20
2018-01-27T02:25:30.257Z,1023.19
2018-01-27T02:26:30.293Z,1023.21
2018-01-27T02:27:30.122Z,1023.20
2018-01-27T02:28:30.102Z,1023.19
2018-01-27T02:29:29.952Z,1023.21
2018-01-27T02:30:29.928Z,1023.16
2018-01-27T02:31:29.776Z,1023.14
2018-01-27T02:32:29.807Z,1023.11
2018-01-27T02:33:29.647Z,1023.12
2018-01-27T02:34:29.614Z,1023.15
2018-01-27T02:35:29.461Z,1023.18
2018-01-27T02:36:29.440Z,1023.16
2018-01-27T02:37:29.307Z,1023.18
2018-01-27T02:38:29.402Z,1023.19
2018-01-27T02:39:29.158Z,1023.24
2018-01-27T02:40:29.161Z,1023.22
2018-01-27T02:41:28.982Z,1023.27
2018-01-27T02:42:28.951Z,1023.27
2018-01-27T02:43:29.446Z,1023.28
2018-01-27T02:44:28.860Z,1023.26
2018-01-27T02:45:28.652Z,1023.30
2018-01-27T02:46:28.672Z,1023.27
2018-01-27T02:47:28.490Z,1023.26
2018-01-27T02:48:28.517Z,1023.24
2018-01-27T02:49:28.354Z,1023.28
2018-01-27T02:50:28.296Z,1023.33
2018-01-27T02:51:28.165Z,1023.34
2018-01-27T02:52:28.958Z,1023.30
2018-01-27T02:53:28.006Z,1023.37
2018-01-27T02:54:28.039Z,1023.36
2018-01-27T02:55:27.840Z,1023.37
2018-01-27T02:56:28.226Z,1023.39
2018-01-27T02:57:28.501Z,1023.37
2018-01-27T02:58:27.722Z,1023.35
2018-01-27T02:59:27.560Z,1023.37
2018-01-27T03:00:27.532Z,1023.38
2018-01-27T03:01:27.384Z,1023.41
2018-01-27T03:02:27.342Z,1023.46
2018-01-27T03:03:27.197Z,1023.40
2018-01-27T03:04:27.247Z,1023.45
2018-01-27T03:05:27.034Z,1023.44
2018-01-27T03:06:27.088Z,1023.48
2018-01-27T03:07:26.872Z,1023.46
2018-01-27T03:08:26.868Z,1023.44
2018-01-27T03:09:26.716Z,1023.47
2018-01-27T03:10:26.712Z,1023.46
2018-01-27T03:11:26.579Z,1023.52
2018-01-27T03:12:26.582Z,1023.49
2018-01-27T03:13:26.400Z,1023.53
2018-01-27T03:14:26.399Z,1023.49
2018-01-27T03:15:26.251Z,1023.46
2018-01-27T03:16:26.231Z,1023.48
2018-01-27T03:17:26.074Z,1023.51
2018-01-27T03:20:07.885Z,1023.49
2018-01-27T03:21:07.933Z,1023.52
2018-01-27T03:22:07.741Z,1023.53
2018-01-27T03:23:07.729Z,1023.53
2018-01-27T03:24:07.561Z,1023.57
2018-01-27T03:25:07.627Z,1023.53
2018-01-27T03:26:07.394Z,1023.56
2018-01-27T03:27:07.467Z,1023.57
2018-01-27T03:28:07.258Z,1023.57
2018-01-27T03:29:07.240Z,1023.62
2018-01-27T03:30:07.081Z,1023.64
2018-01-27T03:31:07.059Z,1023.63
2018-01-27T03:32:06.957Z,1023.64
2018-01-27T03:33:07.005Z,1023.65
2018-01-27T03:34:06.764Z,1023.70
2018-01-27T03:35:06.775Z,1023.70
2018-01-27T03:36:06.646Z,1023.73
2018-01-27T03:37:06.577Z,1023.70
2018-01-27T03:38:06.450Z,1023.72
2018-01-27T03:39:06.488Z,1023.79
2018-01-27T03:40:06.287Z,1023.78
2018-01-27T03:41:06.301Z,1023.78
2018-01-27T03:42:06.113Z,1023.78
2018-01-27T03:43:06.139Z,1023.79
2018-01-27T03:44:05.952Z,1023.78
2018-01-27T03:45:05.915Z,1023.76
2018-01-27T03:46:05.789Z,1023.80
2018-01-27T03:47:05.821Z,1023.79
2018-01-27T03:48:05.651Z,1023.81
2018-01-27T03:49:05.668Z,1023.80
2018-01-27T03:50:05.473Z,1023.84
2018-01-27T03:51:05.448Z,1023.80
2018-01-27T03:52:05.305Z,1023.78
2018-01-27T03:53:05.355Z,1023.82
2018-01-27T03:54:05.182Z,1023.82
2018-01-27T03:55:05.157Z,1023.78
2018-01-27T03:56:04.995Z,1023.80
2018-01-27T03:57:04.969Z,1023.82
2018-01-27T03:58:04.831Z,1023.84
2018-01-27T03:59:04.886Z,1023.87
2018-01-27T04:00:04.683Z,1023.84
2018-01-27T04:01:04.693Z,1023.87
2018-01-27T04:02:04.508Z,1023.95
2018-01-27T04:03:04.500Z,1023.97
2018-01-27T04:04:04.441Z,1024.00
2018-01-27T04:05:04.339Z,1024.06
2018-01-27T04:06:04.177Z,1024.09
2018-01-27T04:07:04.239Z,1024.12
2018-01-27T04:08:04.022Z,1024.17
2018-01-27T04:09:04.024Z,1024.18
2018-01-27T04:10:03.873Z,1024.22
2018-01-27T04:12:45.902Z,1024.24
2018-01-27T04:13:45.944Z,1024.23
2018-01-27T04:14:45.748Z,1024.28
2018-01-27T04:15:46.795Z,1024.25
2018-01-27T04:16:45.563Z,1024.27
2018-01-27T04:17:45.549Z,1024.25
2018-01-27T04:18:45.418Z,1024.29
2018-01-27T04:19:45.474Z,1024.25
2018-01-27T04:20:45.267Z,1024.21
2018-01-27T04:21:45.267Z,1024.26
2018-01-27T04:22:45.091Z,1024.27
2018-01-27T04:23:45.077Z,1024.25
2018-01-27T04:24:44.952Z,1024.30
2018-01-27T04:25:44.923Z,1024.37
2018-01-27T04:26:44.781Z,1024.37
2018-01-27T04:27:44.792Z,1024.39
2018-01-27T04:28:44.599Z,1024.41
2018-01-27T04:29:44.600Z,1024.44
2018-01-27T04:30:44.453Z,1024.44
2018-01-27T04:31:44.410Z,1024.45
2018-01-27T04:32:44.302Z,1024.42
2018-01-27T04:33:44.295Z,1024.45
2018-01-27T04:34:44.125Z,1024.42
2018-01-27T04:35:44.166Z,1024.44
2018-01-27T04:36:43.969Z,1024.49
2018-01-27T04:37:43.945Z,1024.49
2018-01-27T04:38:43.792Z,1024.53
2018-01-27T04:39:43.754Z,1024.60
2018-01-27T04:40:43.692Z,1024.60
2018-01-27T04:41:43.652Z,1024.64
2018-01-27T04:42:43.474Z,1024.62
2018-01-27T04:43:43.466Z,1024.63
2018-01-27T04:44:43.298Z,1024.65
2018-01-27T04:45:43.303Z,1024.69
2018-01-27T04:46:43.164Z,1024.69
2018-01-27T04:47:43.186Z,1024.75
2018-01-27T04:48:42.980Z,1024.74
2018-01-27T04:49:42.993Z,1024.75
2018-01-27T04:50:42.818Z,1024.76
2018-01-27T04:51:42.829Z,1024.76
2018-01-27T04:52:42.658Z,1024.75
2018-01-27T04:53:42.708Z,1024.79
2018-01-27T04:54:42.505Z,1024.82
2018-01-27T04:55:42.516Z,1024.79
2018-01-27T04:56:42.355Z,1024.84
2018-01-27T04:57:42.353Z,1024.80
2018-01-27T04:58:42.186Z,1024.84
2018-01-27T04:59:42.137Z,1024.87
2018-01-27T05:00:42.019Z,1024.87
2018-01-27T05:01:42.046Z,1024.86
2018-01-27T05:02:41.874Z,1024.91
2018-01-27T05:05:23.922Z,1024.85
2018-01-27T05:08:05.924Z,1024.82
2018-01-27T05:09:05.852Z,1024.82
2018-01-27T05:10:05.743Z,1024.82
2018-01-27T05:11:05.764Z,1024.85
2018-01-27T05:12:05.607Z,1024.88
2018-01-27T05:13:05.670Z,1024.94
2018-01-27T05:14:05.413Z,1025.00
2018-01-27T05:15:05.382Z,1025.04
2018-01-27T05:16:05.251Z,1025.06
2018-01-27T05:17:05.472Z,1025.14
2018-01-27T05:18:05.093Z,1025.14
2018-01-27T05:19:05.094Z,1025.15
2018-01-27T05:20:04.939Z,1025.18
2018-01-27T05:21:04.908Z,1025.17
2018-01-27T05:22:04.874Z,1025.22
2018-01-27T05:23:04.820Z,1025.23
2018-01-27T05:24:04.606Z,1025.22
2018-01-27T05:33:45.867Z,1025.28
2018-01-27T05:34:45.660Z,1025.29
2018-01-27T05:35:45.647Z,1025.31
2018-01-27T05:36:45.579Z,1025.33
2018-01-27T05:37:45.480Z,1025.33
2018-01-27T05:38:45.338Z,1025.34
2018-01-27T05:39:45.373Z,1025.31
2018-01-27T05:40:45.182Z,1025.32
2018-01-27T05:41:45.176Z,1025.35
2018-01-27T05:55:08.439Z,1025.47
2018-01-27T05:56:08.223Z,1025.46
2018-01-27T05:57:08.209Z,1025.44
2018-01-27T05:58:08.172Z,1025.46
2018-01-27T05:59:08.026Z,1025.49
2018-01-27T06:00:07.921Z,1025.50
2018-01-27T06:01:07.945Z,1025.54
2018-01-27T06:02:07.731Z,1025.55
2018-01-27T06:03:07.751Z,1025.55
2018-01-27T06:04:07.574Z,1025.63
2018-01-27T06:05:07.574Z,1025.62
2018-01-27T06:06:07.418Z,1025.62
2018-01-27T06:07:07.462Z,1025.59
2018-01-27T06:08:07.265Z,1025.56
2018-01-27T06:09:07.260Z,1025.55
2018-01-27T06:10:07.121Z,1025.59
2018-01-27T06:11:07.076Z,1025.56
2018-01-27T06:12:06.930Z,1025.56
2018-01-27T06:13:06.884Z,1025.58
2018-01-27T06:14:06.769Z,1025.60
2018-01-27T06:15:06.792Z,1025.56
2018-01-27T06:16:06.669Z,1025.62
2018-01-27T06:17:06.607Z,1025.59
2018-01-27T06:18:06.495Z,1025.64
2018-01-27T06:19:06.421Z,1025.65
2018-01-27T06:20:06.286Z,1025.64
2018-01-27T06:21:06.369Z,1025.67
2018-01-27T06:22:06.126Z,1025.67
2018-01-27T06:23:06.126Z,1025.72
2018-01-27T06:24:05.965Z,1025.70
2018-01-27T06:25:05.944Z,1025.76
2018-01-27T06:26:05.820Z,1025.79
2018-01-27T06:27:05.850Z,1025.78
2018-01-27T06:28:05.652Z,1025.83
2018-01-27T06:29:05.651Z,1025.86
2018-01-27T06:30:05.483Z,1025.87
2018-01-27T06:31:05.505Z,1025.85
2018-01-27T06:32:05.309Z,1025.83
2018-01-27T06:33:05.287Z,1025.87
2018-01-27T06:34:05.159Z,1025.90
2018-01-27T06:35:05.196Z,1025.90
2018-01-27T06:36:05.002Z,1025.89
2018-01-27T06:37:04.996Z,1025.88
2018-01-27T06:38:04.829Z,1025.91
2018-01-27T06:39:04.795Z,1025.89
2018-01-27T06:40:04.727Z,1025.96
2018-01-27T06:41:04.640Z,1025.97
2018-01-27T06:42:04.510Z,1025.99
2018-01-27T06:43:04.513Z,1025.99
2018-01-27T06:44:04.376Z,1025.98
2018-01-27T06:45:04.329Z,1025.98
2018-01-27T06:46:04.197Z,1026.02
2018-01-27T06:47:04.133Z,1026.01
2018-01-27T06:48:04.054Z,1026.03
2018-01-27T06:49:04.082Z,1026.06
2018-01-27T06:50:03.861Z,1026.06
2018-01-27T06:51:03.858Z,1026.08
2018-01-27T06:52:03.713Z,1026.05
2018-01-27T06:53:03.703Z,1026.02
2018-01-27T06:54:03.551Z,1026.06
2018-01-27T06:55:03.565Z,1026.03
2018-01-27T06:56:03.377Z,1026.08
2018-01-27T06:57:03.384Z,1026.09
2018-01-27T06:58:03.223Z,1026.08
2018-01-27T06:59:03.229Z,1026.13
2018-01-27T07:00:03.064Z,1026.13
2018-01-27T07:01:03.122Z,1026.18
2018-01-27T07:02:02.886Z,1026.21
2018-01-27T07:03:02.945Z,1026.26
2018-01-27T07:04:02.719Z,1026.30
2018-01-27T07:05:02.727Z,1026.28
2018-01-27T07:06:02.581Z,1026.32
2018-01-27T07:07:02.532Z,1026.30
2018-01-27T07:08:02.404Z,1026.34
2018-01-27T07:09:02.480Z,1026.34
2018-01-27T07:10:02.260Z,1026.34
2018-01-27T07:11:02.249Z,1026.39
2018-01-27T07:12:02.074Z,1026.37
2018-01-27T07:13:02.055Z,1026.36
2018-01-27T07:14:01.917Z,1026.38
2018-01-27T07:15:01.896Z,1026.38
2018-01-27T07:16:01.752Z,1026.38
2018-01-27T07:17:01.772Z,1026.41
2018-01-27T07:18:01.683Z,1026.40
2018-01-27T07:19:01.609Z,1026.39
2018-01-27T07:20:01.456Z,1026.38
2018-01-27T07:21:01.432Z,1026.43
2018-01-27T07:22:01.266Z,1026.43
2018-01-27T07:23:01.297Z,1026.44
2018-01-27T07:24:01.101Z,1026.47
2018-01-27T07:25:01.137Z,1026.45
2018-01-27T07:26:00.942Z,1026.50
2018-01-27T07:27:00.936Z,1026.51
2018-01-27T07:28:00.783Z,1026.49
2018-01-27T07:29:00.837Z,1026.51
2018-01-27T07:30:00.642Z,1026.54
2018-01-27T07:31:00.649Z,1026.55
2018-01-27T07:32:00.462Z,1026.51
2018-01-27T07:33:00.442Z,1026.52
2018-01-27T07:34:00.300Z,1026.56
2018-01-27T07:35:00.281Z,1026.55
2018-01-27T07:36:00.141Z,1026.60
2018-01-27T07:37:00.170Z,1026.59
2018-01-27T07:37:59.970Z,1026.58
2018-01-27T07:38:59.897Z,1026.58
2018-01-27T07:39:59.822Z,1026.62
2018-01-27T07:40:59.888Z,1026.61
2018-01-27T07:41:59.662Z,1026.61
2018-01-27T07:42:59.630Z,1026.63
2018-01-27T07:43:59.488Z,1026.60
2018-01-27T07:44:59.505Z,1026.62
2018-01-27T07:45:59.365Z,1026.66
2018-01-27T07:46:59.326Z,1026.63
2018-01-27T07:47:59.226Z,1026.62
2018-01-27T07:48:59.116Z,1026.65
2018-01-27T07:49:59.012Z,1026.70
2018-01-27T07:50:59.068Z,1026.73
2018-01-27T07:51:58.843Z,1026.76
2018-01-27T07:52:58.834Z,1026.83
2018-01-27T07:53:58.668Z,1026.85
2018-01-27T07:54:58.649Z,1026.83
2018-01-27T07:55:58.533Z,1026.82
2018-01-27T07:56:58.565Z,1026.79
2018-01-27T07:57:58.349Z,1026.82
2018-01-27T07:58:58.371Z,1026.79
2018-01-27T07:59:58.194Z,1026.78
2018-01-27T08:00:58.156Z,1026.77
2018-01-27T08:01:58.038Z,1026.82
2018-01-27T08:02:57.991Z,1026.88
2018-01-27T08:03:57.865Z,1026.85
2018-01-27T08:04:57.890Z,1026.83
2018-01-27T08:05:57.744Z,1026.80
2018-01-27T08:06:57.705Z,1026.78
2018-01-27T08:07:57.552Z,1026.81
2018-01-27T08:10:39.430Z,1026.89
2018-01-27T08:11:39.445Z,1026.89
2018-01-27T08:39:01.273Z,1026.78
2018-01-27T08:40:01.293Z,1026.74
2018-01-27T08:41:01.107Z,1026.75
2018-01-27T08:42:01.099Z,1026.73
2018-01-27T08:44:42.977Z,1026.73
2018-01-27T08:45:42.849Z,1026.76
2018-01-27T08:46:42.780Z,1026.78
2018-01-27T08:47:42.698Z,1026.82
2018-01-27T08:48:42.622Z,1026.85
2018-01-27T08:49:42.549Z,1026.80
2018-01-27T08:50:42.490Z,1026.78
2018-01-27T08:51:42.366Z,1026.75
2018-01-27T08:52:42.302Z,1026.74
2018-01-27T08:53:43.020Z,1026.71
2018-01-27T08:54:42.172Z,1026.70
2018-01-27T08:55:42.057Z,1026.67
2018-01-27T08:56:41.982Z,1026.72
2018-01-27T08:57:41.890Z,1026.79
2018-01-27T08:58:41.811Z,1026.78
2018-01-27T08:59:41.736Z,1026.84
2018-01-27T09:00:41.660Z,1026.82
2018-01-27T09:01:41.556Z,1026.88
2018-01-27T09:02:41.492Z,1026.92
2018-01-27T09:03:41.453Z,1026.86
2018-01-27T09:04:41.358Z,1026.83
2018-01-27T09:05:41.250Z,1026.89
2018-01-27T09:06:41.180Z,1026.84
2018-01-27T09:07:41.083Z,1026.87
2018-01-27T09:08:41.005Z,1026.87
2018-01-27T09:09:40.930Z,1026.93
2018-01-27T09:10:40.881Z,1026.90
2018-01-27T09:11:40.762Z,1026.94
2018-01-27T09:12:40.714Z,1026.93
2018-01-27T09:13:40.587Z,1026.89
2018-01-27T09:14:40.539Z,1026.89
2018-01-27T09:15:40.454Z,1026.91
2018-01-27T09:16:40.527Z,1026.89
2018-01-27T09:17:40.272Z,1026.87
2018-01-27T09:18:40.198Z,1026.85
2018-01-27T09:19:40.120Z,1026.88
2018-01-27T09:20:40.064Z,1026.88
2018-01-27T09:21:39.958Z,1026.89
2018-01-27T09:22:39.916Z,1026.86
2018-01-27T09:23:39.819Z,1026.89
2018-01-27T09:24:39.720Z,1026.91
2018-01-27T09:25:39.645Z,1026.92
2018-01-27T09:26:39.563Z,1026.99
2018-01-27T09:27:39.493Z,1027.02
2018-01-27T09:28:39.421Z,1027.09
2018-01-27T09:29:39.312Z,1027.07
2018-01-27T09:30:39.243Z,1027.08
2018-01-27T09:31:39.157Z,1027.12
2018-01-27T09:32:39.165Z,1027.14
2018-01-27T09:33:38.990Z,1027.11
2018-01-27T09:34:38.921Z,1027.08
2018-01-27T09:35:38.847Z,1027.06
2018-01-27T09:36:38.762Z,1027.02
2018-01-27T09:37:38.680Z,1027.08
2018-01-27T09:38:38.631Z,1027.08
2018-01-27T09:39:38.510Z,1027.07
2018-01-27T09:40:38.440Z,1027.12
2018-01-27T09:41:38.357Z,1027.15
2018-01-27T09:42:38.281Z,1027.11
2018-01-27T09:43:38.206Z,1027.11
2018-01-27T09:44:38.115Z,1027.17
2018-01-27T09:45:38.035Z,1027.15
2018-01-27T09:46:37.973Z,1027.23
2018-01-27T09:47:37.877Z,1027.27
2018-01-27T09:48:37.834Z,1027.25
2018-01-27T09:49:37.716Z,1027.37
2018-01-27T09:50:37.664Z,1027.39
2018-01-27T09:51:37.555Z,1027.41
2018-01-27T09:52:37.492Z,1027.34
2018-01-27T09:53:37.418Z,1027.33
2018-01-27T09:54:37.356Z,1027.29
2018-01-27T09:55:37.300Z,1027.27
2018-01-27T09:56:37.182Z,1027.30
2018-01-27T09:57:37.085Z,1027.25
2018-01-27T09:58:37.020Z,1027.26
2018-01-27T09:59:36.957Z,1027.30
2018-01-27T10:00:36.863Z,1027.27
2018-01-27T10:01:36.767Z,1027.25
2018-01-27T10:04:18.986Z,1027.37
2018-01-27T10:05:18.900Z,1027.28
2018-01-27T10:06:18.798Z,1027.29
2018-01-27T10:07:18.727Z,1027.41
2018-01-27T10:08:18.632Z,1027.40
2018-01-27T10:09:18.571Z,1027.27
2018-01-27T10:10:18.509Z,1027.24
2018-01-27T10:11:18.451Z,1027.23
2018-01-27T10:12:18.322Z,1027.25
2018-01-27T10:13:18.252Z,1027.24
2018-01-27T10:14:18.158Z,1027.27
2018-01-27T10:15:18.125Z,1027.28
2018-01-27T10:16:17.998Z,1027.20
2018-01-27T10:17:17.936Z,1027.27
2018-01-27T10:18:17.862Z,1027.33
2018-01-27T10:19:17.786Z,1027.22
2018-01-27T10:20:17.811Z,1027.22
2018-01-27T10:21:17.667Z,1027.22
2018-01-27T10:22:17.534Z,1027.29
2018-01-27T10:23:17.472Z,1027.40
2018-01-27T10:24:17.384Z,1027.33
2018-01-27T10:25:17.327Z,1027.31
2018-01-27T10:26:17.239Z,1027.33
2018-01-27T10:27:17.150Z,1027.27
2018-01-27T10:28:17.061Z,1027.24
2018-01-27T10:29:17.534Z,1027.21
2018-01-27T10:32:40.612Z,1027.21
2018-01-27T10:33:40.514Z,1027.19
2018-01-27T10:34:40.445Z,1027.17
2018-01-27T10:35:40.354Z,1027.21
2018-01-27T10:36:40.304Z,1027.27
2018-01-27T10:37:40.196Z,1027.28
2018-01-27T10:38:40.129Z,1027.26
2018-01-27T10:39:40.042Z,1027.27
2018-01-27T10:40:39.979Z,1027.31
2018-01-27T10:41:39.901Z,1027.34
2018-01-27T10:42:39.840Z,1027.31
2018-01-27T10:43:39.739Z,1027.34
2018-01-27T10:44:39.666Z,1027.25
2018-01-27T10:45:39.573Z,1027.17
2018-01-27T10:46:39.510Z,1027.21
2018-01-27T10:47:39.429Z,1027.08
2018-01-27T10:48:39.362Z,1027.13
2018-01-27T10:49:39.266Z,1027.04
2018-01-27T10:50:39.201Z,1027.06
2018-01-27T10:51:39.107Z,1027.13
2018-01-27T10:52:39.054Z,1027.24
2018-01-27T10:53:38.947Z,1027.31
2018-01-27T10:54:38.874Z,1027.15
2018-01-27T10:55:38.792Z,1027.24
2018-01-27T10:56:38.735Z,1027.36
2018-01-27T10:57:38.663Z,1027.24
2018-01-27T10:58:38.572Z,1027.23
2018-01-27T10:59:38.482Z,1027.22
2018-01-27T11:00:38.423Z,1027.18
2018-01-27T11:01:38.338Z,1027.17
2018-01-27T11:02:38.287Z,1027.16
2018-01-27T11:03:38.171Z,1027.29
2018-01-27T11:04:38.107Z,1027.17
2018-01-27T11:05:38.014Z,1027.19
2018-01-27T11:06:37.958Z,1027.18
2018-01-27T11:07:37.881Z,1027.17
2018-01-27T11:08:37.809Z,1027.24
2018-01-27T11:09:37.708Z,1027.23
2018-01-27T11:10:37.635Z,1027.40
2018-01-27T11:11:37.542Z,1027.39
2018-01-27T11:12:37.492Z,1027.44
2018-01-27T11:13:37.409Z,1027.44
2018-01-27T11:14:37.341Z,1027.52
2018-01-27T11:15:37.237Z,1027.50
2018-01-27T11:16:37.212Z,1027.43
2018-01-27T11:17:37.077Z,1027.50
2018-01-27T11:18:37.033Z,1027.51
2018-01-27T11:19:36.996Z,1027.37
2018-01-27T11:20:36.864Z,1027.26
2018-01-27T11:21:36.786Z,1027.32
2018-01-27T11:22:36.698Z,1027.41
2018-01-27T11:23:36.613Z,1027.43
2018-01-27T11:24:36.565Z,1027.41
2018-01-27T11:25:36.575Z,1027.45
2018-01-27T11:26:36.404Z,1027.49
2018-01-27T11:27:36.304Z,1027.47
2018-01-27T11:28:36.246Z,1027.45
2018-01-27T11:29:36.172Z,1027.57
2018-01-27T11:30:36.112Z,1027.47
2018-01-27T11:31:36.025Z,1027.47
2018-01-27T11:32:35.937Z,1027.35
2018-01-27T11:33:35.845Z,1027.31
2018-01-27T11:34:35.809Z,1027.40
2018-01-27T11:35:35.724Z,1027.51
2018-01-27T11:36:35.645Z,1027.52
2018-01-27T11:37:35.547Z,1027.43
2018-01-27T11:38:35.475Z,1027.41
2018-01-27T11:39:35.386Z,1027.45
2018-01-27T11:40:35.330Z,1027.38
2018-01-27T11:41:35.257Z,1027.37
2018-01-27T11:42:35.305Z,1027.32
2018-01-27T11:43:36.045Z,1027.31
2018-01-27T11:44:35.024Z,1027.32
2018-01-27T11:45:34.939Z,1027.31
2018-01-27T11:46:34.912Z,1027.26
2018-01-27T11:47:34.783Z,1027.21
2018-01-27T11:48:34.722Z,1027.24
2018-01-27T11:49:34.632Z,1027.22
2018-01-27T11:50:34.571Z,1027.15
2018-01-27T11:51:34.504Z,1027.21
2018-01-27T11:52:34.532Z,1027.24
2018-01-27T11:53:34.332Z,1027.22
2018-01-27T11:54:34.260Z,1027.18
2018-01-27T11:55:34.184Z,1027.15
2018-01-27T11:56:34.123Z,1027.21
2018-01-27T11:57:34.041Z,1027.21
2018-01-27T11:58:34.013Z,1027.17
2018-01-27T11:59:33.873Z,1027.11
2018-01-27T12:00:33.807Z,1027.11
2018-01-27T12:01:33.740Z,1027.20
2018-01-27T12:02:33.680Z,1027.18
2018-01-27T12:03:33.570Z,1027.17
2018-01-27T12:04:33.523Z,1027.05
2018-01-27T12:05:33.425Z,1027.14
2018-01-27T12:06:33.364Z,1027.19
2018-01-27T12:07:33.287Z,1027.20
2018-01-27T12:08:33.194Z,1027.08
2018-01-27T12:09:33.153Z,1026.99
2018-01-27T12:10:33.049Z,1027.09
2018-01-27T12:11:32.970Z,1027.01
2018-01-27T12:12:32.899Z,1026.91
2018-01-27T12:13:32.825Z,1026.95
2018-01-27T12:14:32.772Z,1027.01
2018-01-27T12:15:32.674Z,1026.90
2018-01-27T12:16:32.594Z,1026.85
2018-01-27T12:17:32.505Z,1026.87
2018-01-27T12:18:32.449Z,1026.96
2018-01-27T12:19:32.358Z,1026.94
2018-01-27T12:20:32.290Z,1026.98
2018-01-27T12:21:32.228Z,1026.90
2018-01-27T12:22:32.133Z,1026.92
2018-01-27T12:23:32.077Z,1026.81
2018-01-27T12:24:32.040Z,1026.85
2018-01-27T12:25:31.907Z,1026.76
2018-01-27T12:26:31.823Z,1026.70
2018-01-27T12:27:31.734Z,1026.72
2018-01-27T12:28:31.705Z,1026.73
2018-01-27T12:29:31.577Z,1026.68
2018-01-27T12:30:31.539Z,1026.57
2018-01-27T12:31:31.430Z,1026.60
2018-01-27T12:32:31.372Z,1026.61
2018-01-27T12:33:31.282Z,1026.59
2018-01-27T12:34:31.341Z,1026.43
2018-01-27T12:35:31.138Z,1026.45
2018-01-27T12:36:31.048Z,1026.44
2018-01-27T12:37:30.958Z,1026.42
2018-01-27T12:38:30.909Z,1026.41
2018-01-27T12:39:30.830Z,1026.41
2018-01-27T12:40:30.737Z,1026.35
2018-01-27T12:41:30.668Z,1026.31
2018-01-27T12:42:31.563Z,1026.29
2018-01-27T12:43:30.507Z,1026.22
2018-01-27T12:44:30.434Z,1026.23
2018-01-27T12:45:30.335Z,1026.13
2018-01-27T12:46:30.285Z,1026.17
2018-01-27T12:47:30.185Z,1026.15
2018-01-27T12:48:30.108Z,1026.15
2018-01-27T12:49:30.024Z,1026.17
2018-01-27T12:50:31.003Z,1026.18
2018-01-27T12:51:29.866Z,1026.16
2018-01-27T12:52:29.807Z,1026.15
2018-01-27T12:53:29.720Z,1026.18
2018-01-27T12:54:29.657Z,1026.21
2018-01-27T12:55:29.581Z,1026.26
2018-01-27T12:56:29.513Z,1026.27
2018-01-27T12:57:29.447Z,1026.25
2018-01-27T12:58:29.408Z,1026.16
2018-01-27T12:59:29.255Z,1026.14
2018-01-27T13:00:29.234Z,1026.15
2018-01-27T13:01:29.112Z,1026.13
2018-01-27T13:02:29.127Z,1026.26
2018-01-27T13:03:28.934Z,1026.27
2018-01-27T13:04:28.938Z,1026.19
2018-01-27T13:05:28.777Z,1026.24
2018-01-27T13:06:28.775Z,1026.20